Time;durP1;ratioP1;P1;durP2;ratioP2;P2;SDS_P1;SDS_P2;PMS_P1;PMS_P2;Temp;Humidity;BMP_temperature;BMP_pressure;BME280_temperature;BME280_humidity;BME280_pressure;Samples;Min_cycle;Max_cycle;Signal;HPM_P1;HPM_P2
2022/09/24 00:00:32;;;;;;;8.30;5.00;;;10.80;99.90;;;;;;5009367;28;20558;-50
2022/09/24 00:02:59;;;;;;;5.70;4.97;;;10.80;99.90;;;;;;5009055;28;20468;-51
2022/09/24 00:05:25;;;;;;;5.80;4.63;;;10.80;99.90;;;;;;5009961;28;20566;-51
2022/09/24 00:07:52;;;;;;;4.80;4.30;;;10.80;99.90;;;;;;5009200;28;20638;-50
2022/09/24 00:10:18;;;;;;;6.30;4.00;;;10.70;99.90;;;;;;5008808;28;20507;-50
2022/09/24 00:12:45;;;;;;;5.53;4.80;;;10.70;99.90;;;;;;5010630;28;20642;-50
2022/09/24 00:15:11;;;;;;;5.47;4.90;;;10.70;99.90;;;;;;5009211;28;20491;-51
2022/09/24 00:17:39;;;;;;;11.53;4.43;;;10.70;99.90;;;;;;5011355;28;20554;-50
2022/09/24 00:20:06;;;;;;;7.33;4.70;;;10.60;99.90;;;;;;5008377;28;20562;-50
2022/09/24 00:22:33;;;;;;;5.07;4.53;;;10.60;99.90;;;;;;5007936;28;20551;-50
2022/09/24 00:27:43;;;;;;;4.60;4.20;;;10.60;99.90;;;;;;5005119;28;20450;-50
2022/09/24 00:30:11;;;;;;;9.20;4.43;;;10.60;99.90;;;;;;5009420;28;20491;-50
2022/09/24 00:32:39;;;;;;;5.57;4.60;;;10.60;99.90;;;;;;5009664;28;20578;-50
2022/09/24 00:35:06;;;;;;;4.83;4.37;;;10.60;99.90;;;;;;5009363;28;20566;-50
2022/09/24 00:37:32;;;;;;;11.40;5.60;;;10.60;99.90;;;;;;5008399;28;20989;-50
2022/09/24 00:39:59;;;;;;;5.07;4.57;;;10.60;99.90;;;;;;5007979;28;20551;-51
2022/09/24 00:42:27;;;;;;;5.77;4.90;;;10.50;99.90;;;;;;5008020;28;20811;-50
2022/09/24 00:44:55;;;;;;;6.80;5.60;;;10.50;99.90;;;;;;5009566;28;20560;-50
2022/09/24 00:47:30;;;;;;;20.17;8.40;;;10.50;99.90;;;;;;5009573;28;20492;-50
2022/09/24 00:50:06;;;;;;;14.27;9.00;;;10.50;99.90;;;;;;5009530;28;20554;-50
2022/09/24 00:52:35;;;;;;;9.83;8.20;;;10.50;99.90;;;;;;5006216;28;20459;-50
2022/09/24 00:55:01;;;;;;;12.40;8.50;;;10.50;99.90;;;;;;5006589;28;20606;-51
2022/09/24 00:57:28;;;;;;;28.40;10.70;;;10.40;99.90;;;;;;5009197;28;20590;-50
2022/09/24 00:59:56;;;;;;;20.17;13.93;;;10.40;99.90;;;;;;5008401;28;20554;-50
2022/09/24 01:02:23;;;;;;;16.63;10.37;;;10.40;99.90;;;;;;5009449;28;20468;-51
2022/09/24 01:04:50;;;;;;;18.40;12.93;;;10.30;99.90;;;;;;5009977;28;20483;-50
2022/09/24 01:07:18;;;;;;;11.63;8.10;;;10.30;99.90;;;;;;5008461;28;20538;-50
2022/09/24 01:09:44;;;;;;;19.03;11.47;;;10.30;99.90;;;;;;5006590;28;20598;-50
2022/09/24 01:12:19;;;;;;;14.23;11.00;;;10.30;99.90;;;;;;5005357;28;20460;-50
2022/09/24 01:15:00;;;;;;;8.50;7.10;;;10.30;99.90;;;;;;5008989;28;20545;-50
2022/09/24 01:17:36;;;;;;;6.80;5.70;;;10.30;99.90;;;;;;5010500;28;20506;-50
2022/09/24 01:20:34;;;;;;;6.30;5.33;;;10.30;99.90;;;;;;5006839;28;21019;-51
2022/09/24 01:23:15;;;;;;;7.03;5.43;;;10.40;99.90;;;;;;5006783;28;20514;-49
2022/09/24 01:25:53;;;;;;;8.07;5.67;;;10.40;99.90;;;;;;5013606;28;20482;-48
2022/09/24 01:28:32;;;;;;;5.47;4.97;;;10.30;99.90;;;;;;5014790;28;20439;-49
2022/09/24 01:31:07;;;;;;;4.60;4.20;;;10.40;99.90;;;;;;5011598;28;20585;-48
2022/09/24 01:33:36;;;;;;;5.87;5.27;;;10.40;99.90;;;;;;5012822;28;20570;-48
2022/09/24 01:36:07;;;;;;;9.33;6.70;;;10.40;99.90;;;;;;5010874;28;20579;-49
2022/09/24 01:38:38;;;;;;;5.30;4.80;;;10.40;99.90;;;;;;5006245;28;20459;-49
2022/09/24 01:41:06;;;;;;;7.33;5.30;;;10.40;99.90;;;;;;5010998;28;20883;-49
2022/09/24 01:43:34;;;;;;;8.63;5.50;;;10.50;99.90;;;;;;5009164;28;20597;-49
2022/09/24 01:46:05;;;;;;;5.80;5.20;;;10.50;99.90;;;;;;5011555;28;20985;-49
2022/09/24 01:48:33;;;;;;;5.93;5.43;;;10.50;99.90;;;;;;5010925;28;20542;-49
2022/09/24 01:51:06;;;;;;;12.30;6.00;;;10.50;99.90;;;;;;5012961;28;20500;-49
2022/09/24 01:53:40;;;;;;;8.63;6.83;;;10.50;99.90;;;;;;5009058;28;20578;-48
2022/09/24 01:56:12;;;;;;;6.27;5.20;;;10.50;99.90;;;;;;5008467;28;20483;-49
2022/09/24 01:58:43;;;;;;;6.60;5.40;;;10.50;99.90;;;;;;5013082;28;21008;-49
2022/09/24 02:01:16;;;;;;;6.63;5.00;;;10.50;99.90;;;;;;5010924;28;20491;-48
2022/09/24 02:03:47;;;;;;;6.03;5.30;;;10.50;99.90;;;;;;5009752;28;20578;-49
2022/09/24 02:06:19;;;;;;;5.67;5.07;;;10.50;99.90;;;;;;5008461;28;20487;-48
2022/09/24 02:08:48;;;;;;;7.63;5.90;;;10.50;99.90;;;;;;5012430;28;20460;-49
2022/09/24 02:11:17;;;;;;;9.47;6.63;;;10.50;99.90;;;;;;5010491;28;20470;-49
2022/09/24 02:13:47;;;;;;;9.97;7.40;;;10.50;99.90;;;;;;5012327;28;20557;-49
2022/09/24 02:16:20;;;;;;;10.53;7.93;;;10.40;99.90;;;;;;5010291;28;20576;-48
2022/09/24 02:18:49;;;;;;;8.70;7.20;;;10.40;99.90;;;;;;5011313;28;20609;-49
2022/09/24 02:21:19;;;;;;;11.57;7.33;;;10.40;99.90;;;;;;5011130;28;20546;-49
2022/09/24 02:23:50;;;;;;;9.40;6.60;;;10.40;99.90;;;;;;5009849;28;20567;-48
2022/09/24 02:26:17;;;;;;;7.97;6.13;;;10.40;99.90;;;;;;5011192;28;20542;-50
2022/09/24 02:28:44;;;;;;;7.30;6.60;;;10.40;99.90;;;;;;5012123;28;20546;-48
2022/09/24 02:31:16;;;;;;;9.30;7.10;;;10.40;99.90;;;;;;5002825;28;20471;-49
2022/09/24 02:36:32;;;;;;;9.07;6.40;;;10.40;99.90;;;;;;5004871;28;20622;-48
2022/09/24 02:38:58;;;;;;;6.90;5.67;;;10.40;99.90;;;;;;5012461;28;20463;-48
2022/09/24 02:41:26;;;;;;;5.63;5.13;;;10.40;99.90;;;;;;5008474;28;20601;-48
2022/09/24 02:43:52;;;;;;;5.77;5.10;;;10.30;99.90;;;;;;5009729;28;20562;-49
2022/09/24 02:46:20;;;;;;;19.03;5.67;;;10.30;99.90;;;;;;5008065;28;20547;-48
2022/09/24 02:48:47;;;;;;;7.63;4.90;;;10.30;99.90;;;;;;5012390;28;20577;-48
2022/09/24 02:51:13;;;;;;;5.60;5.00;;;10.30;99.90;;;;;;5010907;28;20558;-49
2022/09/24 02:53:40;;;;;;;5.63;4.80;;;10.30;99.90;;;;;;5012351;28;20526;-48
2022/09/24 02:56:07;;;;;;;6.33;5.43;;;10.30;99.90;;;;;;5009657;28;20580;-48
2022/09/24 02:58:36;;;;;;;5.33;4.83;;;10.20;99.90;;;;;;5012046;28;20554;-48
2022/09/24 03:01:03;;;;;;;5.00;4.50;;;10.20;99.90;;;;;;5011399;28;20468;-49
2022/09/24 03:03:31;;;;;;;4.80;4.30;;;10.20;99.90;;;;;;5005215;28;20607;-48
2022/09/24 03:05:58;;;;;;;4.70;4.30;;;10.20;99.90;;;;;;5011444;28;20507;-48
2022/09/24 03:08:25;;;;;;;7.60;5.10;;;10.20;97.90;;;;;;5011684;28;20563;-49
2022/09/24 03:10:54;;;;;;;5.90;4.67;;;10.10;98.80;;;;;;5007592;28;20467;-49
2022/09/24 03:13:21;;;;;;;12.80;5.13;;;10.10;99.90;;;;;;5010749;28;20470;-48
2022/09/24 03:15:48;;;;;;;6.30;5.30;;;10.10;97.80;;;;;;5010798;28;20932;-49
2022/09/24 03:18:15;;;;;;;5.67;4.60;;;10.10;96.00;;;;;;5011330;28;21057;-49
2022/09/24 03:20:43;;;;;;;5.13;4.73;;;10.10;97.10;;;;;;5009617;28;20512;-49
2022/09/24 03:23:09;;;;;;;5.13;4.73;;;10.10;96.70;;;;;;5010447;28;20474;-49
2022/09/24 03:25:36;;;;;;;5.37;4.97;;;10.00;97.30;;;;;;5009363;28;20555;-49
2022/09/24 03:28:02;;;;;;;5.83;4.97;;;10.00;94.20;;;;;;5011089;28;20490;-50
2022/09/24 03:33:15;;;;;;;6.03;5.03;;;9.90;87.10;;;;;;5005936;28;20448;-49
2022/09/24 03:35:43;;;;;;;6.43;4.90;;;10.00;77.90;;;;;;5011227;28;20973;-49
2022/09/24 03:38:10;;;;;;;6.50;4.70;;;10.00;77.60;;;;;;5009725;28;20484;-48
2022/09/24 03:40:36;;;;;;;7.17;5.00;;;10.00;80.30;;;;;;5006561;28;20550;-48
2022/09/24 03:43:03;;;;;;;5.60;5.13;;;10.00;82.40;;;;;;5006678;28;20563;-49
2022/09/24 03:45:29;;;;;;;7.10;4.80;;;10.00;82.70;;;;;;5007700;28;21012;-48
2022/09/24 03:47:56;;;;;;;5.60;5.10;;;10.00;85.10;;;;;;5010279;28;20550;-48
2022/09/24 03:50:22;;;;;;;5.47;5.00;;;10.00;85.50;;;;;;5011000;28;20464;-48
2022/09/24 03:52:50;;;;;;;9.30;5.70;;;9.90;88.00;;;;;;5010545;28;20547;-49
2022/09/24 03:55:17;;;;;;;5.73;5.00;;;9.90;86.40;;;;;;5009442;28;20566;-49
2022/09/24 03:57:43;;;;;;;6.53;5.27;;;10.00;85.50;;;;;;5006302;28;20571;-49
2022/09/24 04:00:11;;;;;;;4.90;4.50;;;10.00;85.10;;;;;;5010491;28;20550;-48
2022/09/24 04:02:39;;;;;;;5.77;5.27;;;10.00;89.50;;;;;;5008436;28;20545;-49
2022/09/24 04:05:07;;;;;;;7.40;4.93;;;10.00;90.80;;;;;;5006707;28;20584;-49
2022/09/24 04:07:33;;;;;;;6.90;6.20;;;10.00;89.50;;;;;;5016117;28;20456;-49
2022/09/24 04:10:01;;;;;;;7.10;5.37;;;10.00;90.40;;;;;;5010591;28;20550;-49
2022/09/24 04:12:28;;;;;;;11.30;5.17;;;10.00;88.40;;;;;;5008127;28;20558;-48
2022/09/24 04:14:55;;;;;;;5.60;5.00;;;10.00;86.20;;;;;;5010902;28;20550;-49
2022/09/24 04:17:21;;;;;;;5.10;4.67;;;10.00;81.80;;;;;;5008938;28;20582;-49
2022/09/24 04:19:50;;;;;;;6.20;5.30;;;10.00;86.00;;;;;;5010740;28;20557;-49
2022/09/24 04:22:16;;;;;;;5.63;4.90;;;10.00;87.10;;;;;;5009996;28;20455;-50
2022/09/24 04:24:43;;;;;;;7.90;5.33;;;10.00;83.30;;;;;;5011074;28;20574;-49
2022/09/24 04:27:11;;;;;;;8.77;5.93;;;10.00;82.70;;;;;;5007594;28;20978;-48
2022/09/24 04:29:37;;;;;;;6.27;5.17;;;10.00;84.20;;;;;;5007553;28;20550;-49
2022/09/24 04:32:04;;;;;;;5.90;4.90;;;10.00;84.40;;;;;;5007804;28;20554;-49
2022/09/24 04:34:30;;;;;;;5.00;4.50;;;10.00;83.40;;;;;;5007899;28;20609;-48
2022/09/24 04:36:57;;;;;;;5.57;4.90;;;10.00;79.60;;;;;;5007715;28;20494;-48
2022/09/24 04:39:26;;;;;;;8.17;6.00;;;10.00;81.00;;;;;;5006748;28;20562;-49
2022/09/24 04:41:52;;;;;;;5.00;4.60;;;9.90;80.50;;;;;;5005712;28;20469;-48
2022/09/24 04:44:21;;;;;;;8.43;5.70;;;10.00;81.20;;;;;;5009277;28;20606;-48
2022/09/24 04:46:48;;;;;;;6.20;4.97;;;9.90;79.60;;;;;;5009357;28;20456;-48
2022/09/24 04:49:14;;;;;;;7.07;6.37;;;9.90;77.00;;;;;;5006593;28;20551;-49
2022/09/24 04:51:41;;;;;;;8.00;5.33;;;10.00;78.00;;;;;;5009154;28;20941;-49
2022/09/24 04:54:08;;;;;;;11.67;4.70;;;10.00;75.60;;;;;;5007693;28;20526;-48
2022/09/24 04:56:35;;;;;;;6.37;5.47;;;10.00;74.40;;;;;;5008427;28;20550;-48
2022/09/24 04:59:01;;;;;;;7.03;5.27;;;10.00;77.20;;;;;;5011794;28;20499;-49
2022/09/24 05:01:29;;;;;;;7.17;5.57;;;10.00;83.10;;;;;;5009494;28;20542;-49
2022/09/24 05:03:56;;;;;;;9.23;6.37;;;10.00;81.90;;;;;;5011318;28;20583;-49
2022/09/24 05:06:22;;;;;;;7.23;5.53;;;10.00;82.90;;;;;;5012837;28;20588;-48
2022/09/24 05:08:49;;;;;;;12.03;5.40;;;10.00;82.20;;;;;;5008742;28;20455;-49
2022/09/24 05:11:15;;;;;;;5.77;5.23;;;10.00;80.90;;;;;;5007197;28;20558;-49
2022/09/24 05:13:42;;;;;;;6.43;5.00;;;10.10;79.30;;;;;;5014168;28;21171;-49
2022/09/24 05:16:09;;;;;;;6.73;5.33;;;10.10;79.50;;;;;;5011556;28;20555;-49
2022/09/24 05:18:36;;;;;;;6.63;5.90;;;10.10;86.30;;;;;;5014304;28;20487;-48
2022/09/24 05:21:03;;;;;;;7.83;6.57;;;10.10;90.90;;;;;;5011546;28;21322;-49
2022/09/24 05:23:30;;;;;;;9.10;6.10;;;10.10;94.60;;;;;;5009589;28;20689;-49
2022/09/24 05:28:41;;;;;;;7.13;5.33;;;10.20;97.40;;;;;;5013803;28;21018;-49
2022/09/24 05:31:09;;;;;;;5.77;5.10;;;10.20;99.10;;;;;;5008298;28;21056;-48
2022/09/24 05:33:37;;;;;;;6.07;5.50;;;10.20;99.90;;;;;;5011271;28;20483;-48
2022/09/24 05:36:04;;;;;;;6.07;5.47;;;10.20;99.40;;;;;;5012714;28;20903;-49
2022/09/24 05:38:31;;;;;;;6.80;5.83;;;10.20;99.40;;;;;;5012034;28;20487;-48
2022/09/24 05:40:58;;;;;;;6.17;5.47;;;10.30;99.90;;;;;;5009596;28;20559;-48
2022/09/24 05:43:26;;;;;;;7.03;6.27;;;10.30;99.90;;;;;;5008420;28;20821;-49
2022/09/24 05:45:53;;;;;;;6.67;6.07;;;10.30;99.90;;;;;;5012496;28;20550;-49
2022/09/24 05:48:20;;;;;;;8.10;6.20;;;10.30;99.90;;;;;;5012939;28;20463;-49
2022/09/24 05:50:48;;;;;;;7.40;6.57;;;10.30;99.90;;;;;;5011701;28;20474;-49
2022/09/24 05:53:15;;;;;;;12.73;7.20;;;10.30;99.90;;;;;;5011412;28;20542;-49
2022/09/24 05:55:42;;;;;;;11.40;7.30;;;10.30;99.90;;;;;;5013740;28;20551;-48
2022/09/24 05:58:10;;;;;;;11.80;6.67;;;10.30;99.90;;;;;;5007640;28;20562;-49
2022/09/24 06:00:37;;;;;;;9.13;6.27;;;10.40;99.90;;;;;;5008983;28;20546;-48
2022/09/24 06:03:06;;;;;;;7.60;6.77;;;10.40;99.90;;;;;;5010324;28;20482;-48
2022/09/24 06:05:34;;;;;;;10.00;5.83;;;10.40;99.90;;;;;;5009203;28;20838;-49
2022/09/24 06:08:02;;;;;;;6.20;5.40;;;10.50;99.90;;;;;;5006936;28;20468;-48
2022/09/24 06:10:29;;;;;;;8.40;7.17;;;10.50;99.90;;;;;;5009250;28;20460;-49
2022/09/24 06:12:55;;;;;;;9.07;6.40;;;10.50;99.90;;;;;;5007372;28;20874;-48
2022/09/24 06:15:25;;;;;;;8.27;5.57;;;10.60;99.90;;;;;;5009408;28;20514;-49
2022/09/24 06:17:53;;;;;;;5.93;5.40;;;10.60;99.90;;;;;;5011565;28;20487;-48
2022/09/24 06:20:19;;;;;;;6.97;6.27;;;10.70;99.90;;;;;;5011544;28;20467;-49
2022/09/24 06:22:46;;;;;;;7.63;6.33;;;10.60;99.90;;;;;;5012736;28;20559;-48
2022/09/24 06:25:14;;;;;;;8.90;6.63;;;10.70;99.90;;;;;;5007662;28;20586;-49
2022/09/24 06:27:41;;;;;;;6.60;6.00;;;10.70;99.90;;;;;;5008824;28;20455;-48
2022/09/24 06:30:08;;;;;;;6.60;6.00;;;10.70;99.90;;;;;;5007190;28;20467;-49
2022/09/24 06:32:35;;;;;;;6.33;5.83;;;10.70;99.90;;;;;;5006543;28;20543;-49
2022/09/24 06:35:01;;;;;;;6.10;5.27;;;10.80;99.90;;;;;;5008929;28;20566;-47
2022/09/24 06:37:28;;;;;;;6.87;5.53;;;10.80;99.90;;;;;;5010607;28;20489;-49
2022/09/24 06:39:54;;;;;;;7.03;5.60;;;10.80;99.90;;;;;;5009412;28;20547;-49
2022/09/24 06:42:22;;;;;;;7.73;6.10;;;10.80;99.90;;;;;;5008881;28;21044;-48
2022/09/24 06:44:49;;;;;;;6.70;5.70;;;10.80;99.90;;;;;;5011940;28;20514;-48
2022/09/24 06:47:15;;;;;;;7.73;6.50;;;10.80;99.90;;;;;;5006303;28;20897;-48
2022/09/24 06:49:42;;;;;;;9.57;6.13;;;10.80;99.90;;;;;;5007949;28;20856;-48
2022/09/24 06:52:10;;;;;;;6.47;5.87;;;10.80;99.90;;;;;;5009834;28;20546;-48
2022/09/24 06:54:37;;;;;;;6.50;5.97;;;10.90;99.90;;;;;;5010107;28;20480;-49
2022/09/24 06:57:06;;;;;;;6.53;5.80;;;10.90;99.90;;;;;;5012026;28;20541;-49
2022/09/24 06:59:34;;;;;;;7.20;6.20;;;10.90;99.90;;;;;;5011846;28;20555;-48
2022/09/24 07:02:01;;;;;;;7.87;6.27;;;10.90;99.90;;;;;;5007192;28;20950;-48
2022/09/24 07:04:27;;;;;;;9.00;6.00;;;10.90;99.90;;;;;;5004245;28;20574;-47
2022/09/24 07:09:40;;;;;;;13.90;10.10;;;11.10;99.90;;;;;;5007835;28;20451;-48
2022/09/24 07:12:07;;;;;;;10.73;9.00;;;11.10;99.90;;;;;;5010251;28;20486;-47
2022/09/24 07:14:35;;;;;;;8.60;7.80;;;11.20;99.90;;;;;;5010778;28;20567;-48
2022/09/24 07:17:01;;;;;;;9.80;7.90;;;11.20;99.90;;;;;;5008826;28;20563;-47
2022/09/24 07:19:28;;;;;;;8.43;6.57;;;11.30;99.90;;;;;;5010976;28;20578;-48
2022/09/24 07:21:54;;;;;;;7.33;6.60;;;11.30;99.90;;;;;;5009461;28;20590;-48
2022/09/24 07:24:21;;;;;;;7.80;7.00;;;11.40;99.90;;;;;;5029248;22;20602;-49
2022/09/24 07:26:48;;;;;;;7.00;6.40;;;11.40;99.90;;;;;;5042644;28;20545;-48
2022/09/24 07:29:15;;;;;;;7.63;6.80;;;11.50;99.90;;;;;;5051635;28;20457;-48
2022/09/24 07:31:42;;;;;;;6.40;5.80;;;11.50;99.90;;;;;;5039457;28;20865;-48
2022/09/24 07:34:09;;;;;;;6.90;5.90;;;11.60;99.90;;;;;;5044328;28;20572;-49
2022/09/24 07:36:36;;;;;;;8.37;7.00;;;11.60;99.90;;;;;;5045779;28;21002;-48
2022/09/24 07:39:02;;;;;;;8.27;6.73;;;11.70;99.90;;;;;;5042459;28;20588;-49
2022/09/24 07:41:30;;;;;;;7.70;6.63;;;11.70;99.90;;;;;;5041608;28;20465;-49
2022/09/24 07:43:56;;;;;;;8.40;7.23;;;11.80;99.90;;;;;;5050555;28;20481;-48
2022/09/24 07:46:23;;;;;;;13.13;8.33;;;11.80;99.90;;;;;;5048046;28;20493;-48
2022/09/24 07:48:54;;;;;;;10.10;8.07;;;11.90;99.90;;;;;;5049055;28;20464;-48
2022/09/24 07:51:21;;;;;;;13.80;9.80;;;11.90;99.90;;;;;;5044812;28;20457;-49
2022/09/24 07:53:48;;;;;;;12.23;9.63;;;11.90;99.90;;;;;;5047492;28;20467;-48
2022/09/24 07:56:14;;;;;;;12.27;8.33;;;12.00;99.90;;;;;;5034606;28;20469;-49
2022/09/24 07:58:41;;;;;;;13.07;9.63;;;12.00;99.90;;;;;;5041405;28;20883;-49
2022/09/24 08:01:07;;;;;;;11.00;9.40;;;12.10;99.90;;;;;;5044400;28;20549;-49
2022/09/24 08:03:34;;;;;;;10.00;7.73;;;12.10;99.90;;;;;;5045510;28;20548;-48
2022/09/24 08:06:04;;;;;;;8.97;7.40;;;12.10;99.90;;;;;;5042401;28;20579;-49
2022/09/24 08:08:30;;;;;;;11.70;6.73;;;12.20;99.90;;;;;;5037392;28;20955;-48
2022/09/24 08:10:57;;;;;;;8.33;7.50;;;12.30;99.90;;;;;;5045042;28;20544;-48
2022/09/24 08:13:24;;;;;;;11.97;7.50;;;12.30;99.90;;;;;;5038161;28;20549;-49
2022/09/24 08:15:57;;;;;;;9.23;7.70;;;12.40;99.90;;;;;;5037870;28;20478;-49
2022/09/24 08:18:24;;;;;;;7.43;6.33;;;12.40;99.90;;;;;;5048677;28;20482;-48
2022/09/24 08:20:50;;;;;;;7.20;6.60;;;12.50;99.90;;;;;;5044916;28;20462;-48
2022/09/24 08:23:19;;;;;;;8.50;6.53;;;12.50;99.90;;;;;;5044743;28;20493;-52
2022/09/24 08:25:46;;;;;;;13.00;7.40;;;12.60;99.90;;;;;;5044686;28;20485;-49
2022/09/24 08:28:15;;;;;;;7.73;6.60;;;12.50;99.90;;;;;;5043217;28;20545;-49
2022/09/24 08:30:42;;;;;;;7.43;6.70;;;12.60;99.90;;;;;;5038601;28;20558;-49
2022/09/24 08:33:09;;;;;;;8.33;7.37;;;12.60;99.90;;;;;;5039024;28;20533;-48
2022/09/24 08:35:37;;;;;;;7.50;6.30;;;12.60;99.90;;;;;;5045934;28;20482;-49
2022/09/24 08:38:03;;;;;;;7.03;6.33;;;12.60;99.90;;;;;;5043222;28;20482;-49
2022/09/24 08:40:36;;;;;;;7.03;6.33;;;12.70;99.90;;;;;;5044845;28;20489;-49
2022/09/24 08:43:13;;;;;;;10.60;6.47;;;12.70;99.90;;;;;;5035371;28;20572;-49
2022/09/24 08:48:32;;;;;;;10.57;6.90;;;12.80;99.90;;;;;;5041981;28;20580;-49
2022/09/24 08:51:03;;;;;;;8.07;6.70;;;12.90;99.90;;;;;;5043028;28;21001;-49
2022/09/24 08:53:35;;;;;;;9.50;7.30;;;12.90;99.90;;;;;;5038699;28;21058;-48
2022/09/24 08:56:06;;;;;;;6.20;5.60;;;13.00;99.90;;;;;;5047560;28;20560;-49
2022/09/24 08:58:40;;;;;;;7.40;6.70;;;13.00;99.90;;;;;;5048175;28;20496;-49
2022/09/24 09:01:16;;;;;;;7.30;6.70;;;13.10;99.90;;;;;;5042055;28;20580;-49
2022/09/24 09:03:48;;;;;;;7.03;6.37;;;13.10;99.90;;;;;;5038211;28;20561;-48
2022/09/24 09:06:37;;;;;;;9.30;7.07;;;13.10;99.90;;;;;;5040481;28;20573;-49
2022/09/24 09:09:10;;;;;;;7.70;5.83;;;13.20;99.90;;;;;;5043434;28;20904;-50
2022/09/24 09:11:43;;;;;;;11.70;6.67;;;13.20;99.90;;;;;;5035004;28;20584;-49
2022/09/24 09:14:16;;;;;;;10.73;7.30;;;13.30;99.90;;;;;;5033188;28;20597;-49
2022/09/24 09:16:49;;;;;;;7.93;6.40;;;13.40;99.90;;;;;;5043849;28;20494;-49
2022/09/24 09:19:16;;;;;;;8.10;6.70;;;13.50;99.90;;;;;;5041049;28;20494;-47
2022/09/24 09:21:51;;;;;;;7.00;6.07;;;13.60;99.90;;;;;;5043590;28;20959;-49
2022/09/24 09:24:22;;;;;;;6.90;6.20;;;13.70;99.90;;;;;;5046796;28;20496;-48
2022/09/24 09:26:53;;;;;;;7.40;6.47;;;13.70;99.90;;;;;;5050541;28;20465;-48
2022/09/24 09:29:21;;;;;;;7.70;6.90;;;13.80;99.90;;;;;;5050032;28;20457;-49
2022/09/24 09:32:01;;;;;;;6.90;6.20;;;13.80;99.90;;;;;;5044996;28;20484;-48
2022/09/24 09:34:42;;;;;;;7.27;6.57;;;13.80;99.90;;;;;;5041431;28;20572;-48
2022/09/24 09:37:19;;;;;;;13.33;6.90;;;13.90;99.90;;;;;;5040003;28;20561;-49
2022/09/24 09:39:52;;;;;;;7.90;6.20;;;13.90;99.90;;;;;;5039211;28;21018;-49
2022/09/24 09:42:39;;;;;;;10.13;6.77;;;14.00;99.90;;;;;;5040790;28;21020;-49
2022/09/24 09:45:24;;;;;;;8.40;7.17;;;14.00;99.90;;;;;;5041142;28;20911;-49
2022/09/24 09:47:55;;;;;;;11.43;7.00;;;14.10;99.90;;;;;;5049264;28;20450;-49
2022/09/24 09:50:27;;;;;;;7.30;6.33;;;14.10;99.90;;;;;;5039596;28;20545;-49
2022/09/24 09:52:54;;;;;;;10.23;7.53;;;14.20;99.90;;;;;;5038044;28;20593;-50
2022/09/24 09:55:23;;;;;;;7.63;6.50;;;14.30;32.20;;;;;;5038940;28;20497;-48
2022/09/24 09:57:52;;;;;;;12.80;7.30;;;14.40;24.90;;;;;;5040298;28;20574;-48
2022/09/24 10:00:27;;;;;;;9.43;7.83;;;14.50;99.90;;;;;;5043423;28;20587;-49
2022/09/24 10:02:55;;;;;;;7.97;6.87;;;14.60;82.50;;;;;;5043364;28;20541;-48
2022/09/24 10:05:24;;;;;;;8.13;6.80;;;14.70;27.00;;;;;;5048864;28;20994;-50
2022/09/24 10:07:50;;;;;;;7.20;6.30;;;14.80;28.00;;;;;;5054317;28;20445;-49
2022/09/24 10:10:19;;;;;;;8.47;5.83;;;14.90;34.70;;;;;;5051702;28;20492;-48
2022/09/24 10:12:46;;;;;;;7.13;6.40;;;15.00;38.00;;;;;;5050565;28;20624;-48
2022/09/24 10:15:19;;;;;;;6.80;6.17;;;15.20;46.20;;;;;;5050675;28;20549;-49
2022/09/24 10:17:49;;;;;;;7.30;6.57;;;15.30;49.90;;;;;;5053232;28;20537;-49
2022/09/24 10:20:18;;;;;;;7.10;6.50;;;15.50;72.60;;;;;;5045895;28;21056;-48
2022/09/24 10:22:48;;;;;;;8.23;6.37;;;15.70;63.10;;;;;;5043552;28;20963;-49
2022/09/24 10:25:23;;;;;;;8.03;6.27;;;15.80;66.20;;;;;;5050161;28;20568;-48
2022/09/24 10:27:50;;;;;;;7.60;5.93;;;15.90;70.20;;;;;;5054097;28;20478;-48
2022/09/24 10:30:32;;;;;;;7.80;5.97;;;15.80;80.90;;;;;;5055114;28;20530;-48
2022/09/24 10:33:01;;;;;;;6.03;5.43;;;15.90;66.10;;;;;;5037454;28;20461;-49
2022/09/24 10:35:30;;;;;;;5.47;5.07;;;16.00;66.60;;;;;;5053517;28;20549;-48
2022/09/24 10:37:58;;;;;;;6.83;5.57;;;16.10;88.70;;;;;;5053509;28;20873;-49
2022/09/24 10:40:28;;;;;;;9.73;5.00;;;16.10;82.50;;;;;;5054812;28;20529;-48
2022/09/24 10:42:59;;;;;;;5.80;5.30;;;16.20;76.00;;;;;;5052963;28;20442;-49
2022/09/24 10:45:47;;;;;;;5.77;5.27;;;16.30;97.90;;;;;;5053560;28;20462;-49
2022/09/24 10:48:19;;;;;;;5.30;4.80;;;16.40;99.90;;;;;;5048623;28;20525;-49
2022/09/24 10:50:54;;;;;;;7.27;6.03;;;16.40;99.20;;;;;;5049631;28;20999;-49
2022/09/24 10:53:33;;;;;;;5.83;5.27;;;16.40;99.90;;;;;;5047108;28;20540;-51
2022/09/24 10:56:07;;;;;;;5.87;5.27;;;16.30;99.90;;;;;;5049745;28;20481;-50
2022/09/24 10:58:52;;;;;;;6.40;5.77;;;16.40;99.90;;;;;;5045396;28;20574;-51
2022/09/24 11:01:26;;;;;;;14.00;4.60;;;16.30;99.90;;;;;;5049033;28;20461;-51
2022/09/24 11:04:20;;;;;;;15.70;5.37;;;16.30;99.90;;;;;;5051887;28;20449;-51
2022/09/24 11:07:03;;;;;;;8.60;5.70;;;16.30;99.90;;;;;;5046726;28;21019;-51
2022/09/24 11:09:40;;;;;;;5.10;4.60;;;16.30;98.40;;;;;;5051664;28;20537;-52
2022/09/24 11:12:14;;;;;;;5.30;4.80;;;16.30;90.80;;;;;;5051791;28;20461;-51
2022/09/24 11:15:03;;;;;;;6.40;4.90;;;16.30;99.90;;;;;;5051126;28;20481;-51
2022/09/24 11:17:37;;;;;;;5.67;5.10;;;16.30;99.90;;;;;;5049312;28;20831;-51
2022/09/24 11:20:14;;;;;;;5.80;4.67;;;16.40;99.30;;;;;;5042585;28;20574;-51
2022/09/24 11:23:04;;;;;;;5.43;4.90;;;16.30;99.90;;;;;;5050604;28;20523;-52
2022/09/24 11:25:39;;;;;;;6.63;5.40;;;16.20;99.90;;;;;;5052459;28;21033;-51
2022/09/24 11:28:22;;;;;;;5.53;5.07;;;16.20;99.90;;;;;;5043739;28;21009;-52
2022/09/24 11:30:58;;;;;;;6.70;5.00;;;16.10;98.70;;;;;;5048010;28;20454;-52
2022/09/24 11:33:38;;;;;;;8.20;5.47;;;16.10;99.90;;;;;;5051670;28;20560;-52
2022/09/24 11:36:16;;;;;;;7.40;6.07;;;16.00;98.70;;;;;;5051756;28;20950;-51
2022/09/24 11:39:04;;;;;;;6.07;4.93;;;15.90;99.60;;;;;;5048856;28;20521;-52
2022/09/24 11:41:44;;;;;;;4.57;4.27;;;15.80;96.20;;;;;;5048806;28;20951;-52
2022/09/24 11:44:36;;;;;;;6.50;5.03;;;15.80;93.10;;;;;;5051676;28;20562;-51
2022/09/24 11:47:13;;;;;;;6.57;5.60;;;15.70;95.70;;;;;;5040392;28;20541;-54
2022/09/24 11:50:02;;;;;;;10.40;5.20;;;15.70;95.50;;;;;;5045084;28;20462;-52
2022/09/24 11:52:32;;;;;;;6.00;5.50;;;15.70;91.30;;;;;;5051212;28;20490;-51
2022/09/24 11:55:05;;;;;;;5.73;5.13;;;15.70;86.00;;;;;;5051105;28;20560;-52
2022/09/24 11:57:36;;;;;;;5.13;4.60;;;15.70;86.50;;;;;;5050416;28;20485;-52
2022/09/24 12:00:07;;;;;;;5.93;5.40;;;15.70;78.10;;;;;;5049368;28;20520;-52
2022/09/24 12:02:37;;;;;;;6.97;6.30;;;15.70;90.70;;;;;;5039366;28;20970;-52
2022/09/24 12:05:09;;;;;;;5.70;5.27;;;15.70;96.90;;;;;;5049880;28;20518;-51
2022/09/24 12:07:42;;;;;;;6.23;4.87;;;15.60;98.50;;;;;;5045581;28;20503;-51
2022/09/24 12:10:24;;;;;;;5.90;5.40;;;15.70;95.30;;;;;;5050630;28;20486;-52
2022/09/24 12:12:53;;;;;;;5.10;4.60;;;15.60;93.20;;;;;;5044849;28;20644;-51
2022/09/24 12:15:23;;;;;;;6.07;5.47;;;15.60;98.00;;;;;;5049459;28;21003;-51
2022/09/24 12:17:56;;;;;;;5.40;5.00;;;15.60;99.90;;;;;;5047911;28;20503;-52
2022/09/24 12:20:28;;;;;;;5.63;5.03;;;15.60;99.90;;;;;;5050328;28;20509;-53
2022/09/24 12:22:59;;;;;;;6.77;5.57;;;15.60;99.90;;;;;;5043879;28;20466;-52
2022/09/24 12:25:28;;;;;;;5.87;5.37;;;15.50;99.90;;;;;;5050941;28;20642;-51
2022/09/24 12:27:57;;;;;;;5.37;4.87;;;15.50;99.90;;;;;;5051122;28;21030;-51
2022/09/24 12:33:27;;;;;;;9.17;6.90;;;15.50;98.50;;;;;;5049727;28;20496;-51
2022/09/24 12:36:07;;;;;;;5.80;5.30;;;15.60;91.30;;;;;;5051532;28;20465;-52
2022/09/24 12:38:39;;;;;;;6.80;5.70;;;15.60;97.10;;;;;;5031616;28;20521;-51
2022/09/24 12:41:20;;;;;;;16.50;13.83;;;15.50;95.30;;;;;;5031532;28;20490;-51
2022/09/24 12:43:51;;;;;;;38.03;24.27;;;15.50;99.90;;;;;;5031736;28;20453;-52
2022/09/24 12:46:21;;;;;;;32.80;20.20;;;15.50;99.70;;;;;;5045219;28;20552;-51
2022/09/24 12:48:49;;;;;;;8.50;7.30;;;15.50;97.30;;;;;;5049400;28;20465;-51
2022/09/24 12:51:21;;;;;;;5.27;4.73;;;15.50;92.90;;;;;;5041322;28;20538;-51
2022/09/24 12:53:57;;;;;;;5.90;5.40;;;15.50;94.70;;;;;;5046738;28;20549;-51
2022/09/24 12:56:25;;;;;;;6.40;5.80;;;15.50;97.80;;;;;;5047992;28;20538;-51
2022/09/24 12:58:52;;;;;;;8.90;5.53;;;15.50;93.80;;;;;;5045157;28;20506;-51
2022/09/24 13:01:27;;;;;;;6.17;5.30;;;15.60;94.10;;;;;;5044929;28;20624;-51
2022/09/24 13:04:03;;;;;;;6.00;5.10;;;15.60;89.80;;;;;;5050679;28;20902;-51
2022/09/24 13:06:34;;;;;;;8.13;5.40;;;15.60;90.20;;;;;;5050735;28;20465;-51
2022/09/24 13:09:01;;;;;;;7.80;5.50;;;15.60;84.30;;;;;;5044012;28;20576;-51
2022/09/24 13:11:30;;;;;;;8.13;5.50;;;15.60;79.80;;;;;;5044565;28;20561;-51
2022/09/24 13:14:04;;;;;;;5.00;4.57;;;15.60;94.30;;;;;;5046863;28;20492;-51
2022/09/24 13:16:31;;;;;;;9.80;5.47;;;15.60;87.70;;;;;;5043221;28;20489;-51
2022/09/24 13:19:01;;;;;;;7.23;6.10;;;15.60;82.30;;;;;;5052500;28;21064;-52